Time;durP1;ratioP1;P1;durP2;ratioP2;P2;SDS_P1;SDS_P2;PMS_P1;PMS_P2;Temp;Humidity;BMP_temperature;BMP_pressure;BME280_temperature;BME280_humidity;BME280_pressure;Samples;Min_cycle;Max_cycle;Signal;HPM_P1;HPM_P2
2022/12/07 00:00:07;;;;;;;411.23;239.23;;;;;;;3.45;81.91;100826.53;4212482;28;20284;-60
2022/12/07 00:02:09;;;;;;;411.33;240.17;;;;;;;3.44;81.51;100825.72;4213561;28;20277;-59
2022/12/07 00:04:13;;;;;;;417.10;262.87;;;;;;;3.41;81.28;100812.63;4214018;28;20504;-60
2022/12/07 00:06:17;;;;;;;419.80;260.57;;;;;;;3.37;81.30;100827.19;4212883;28;20300;-61
2022/12/07 00:08:19;;;;;;;416.20;253.27;;;;;;;3.37;81.10;100824.50;4213407;28;20770;-60
2022/12/07 00:10:21;;;;;;;419.20;267.23;;;;;;;3.36;80.74;100822.84;4213204;28;20329;-59
2022/12/07 00:12:23;;;;;;;413.83;244.60;;;;;;;3.35;80.63;100827.31;4213997;28;20723;-61
2022/12/07 00:14:27;;;;;;;408.63;230.93;;;;;;;3.32;80.63;100818.72;4213724;28;20213;-60
2022/12/07 00:16:32;;;;;;;412.37;248.83;;;;;;;3.29;80.38;100817.19;4212770;28;20320;-60
2022/12/07 00:18:34;;;;;;;409.73;238.90;;;;;;;3.27;80.64;100813.75;4213842;28;20214;-61
2022/12/07 00:20:36;;;;;;;407.00;225.87;;;;;;;3.28;80.52;100814.63;4212862;28;20662;-60
2022/12/07 00:22:39;;;;;;;409.17;242.30;;;;;;;3.28;80.07;100817.31;4213376;28;20224;-61
2022/12/07 00:24:41;;;;;;;410.60;241.73;;;;;;;3.23;79.74;100807.84;4213227;28;20314;-59
2022/12/07 00:26:44;;;;;;;417.27;267.43;;;;;;;3.23;79.83;100807.84;4209364;28;20325;-61
2022/12/07 00:28:47;;;;;;;408.00;233.33;;;;;;;3.23;79.55;100812.34;4212805;28;20309;-61
2022/12/07 00:30:51;;;;;;;410.53;247.13;;;;;;;3.21;79.26;100820.47;4212463;28;20746;-60
2022/12/07 00:32:53;;;;;;;409.47;234.67;;;;;;;3.21;78.82;100811.59;4213304;28;20296;-60
2022/12/07 00:34:55;;;;;;;405.97;218.73;;;;;;;3.19;78.55;100813.56;4208543;28;20252;-61
2022/12/07 00:36:58;;;;;;;412.13;249.23;;;;;;;3.16;78.30;100806.66;4202567;28;20652;-59
2022/12/07 00:39:00;;;;;;;412.33;246.43;;;;;;;3.16;78.16;100808.47;4189888;28;20223;-60
2022/12/07 00:41:05;;;;;;;407.80;234.90;;;;;;;3.11;77.86;100806.19;4212281;28;20785;-61
2022/12/07 00:43:07;;;;;;;410.43;244.40;;;;;;;3.10;77.78;100806.31;4208673;28;20278;-60
2022/12/07 00:45:10;;;;;;;405.13;219.87;;;;;;;3.05;77.82;100810.19;4212448;28;20718;-60
2022/12/07 00:47:13;;;;;;;405.60;222.70;;;;;;;3.05;78.15;100801.34;4213072;28;20632;-60
2022/12/07 00:49:16;;;;;;;403.00;216.37;;;;;;;3.05;77.80;100796.84;4212926;28;20309;-61
2022/12/07 00:51:19;;;;;;;408.00;237.97;;;;;;;3.04;77.62;100788.97;4212235;28;20312;-59
2022/12/07 00:53:22;;;;;;;411.17;244.37;;;;;;;3.03;77.31;100790.81;4212870;28;20285;-59
2022/12/07 00:55:24;;;;;;;406.30;230.20;;;;;;;3.03;77.24;100796.16;4211791;28;20308;-60
2022/12/07 00:57:26;;;;;;;406.20;229.27;;;;;;;3.01;77.04;100790.09;4212793;28;20281;-60
2022/12/07 00:59:28;;;;;;;411.43;252.83;;;;;;;3.00;76.81;100793.72;4213197;28;20194;-60
2022/12/07 01:01:33;;;;;;;410.43;247.57;;;;;;;2.96;76.09;100784.31;4194376;28;20306;-61
2022/12/07 01:03:37;;;;;;;410.70;240.23;;;;;;;2.93;75.91;100789.88;4214603;28;20645;-61
2022/12/07 01:05:39;;;;;;;410.00;241.63;;;;;;;2.91;76.03;100783.81;4211778;28;20333;-61
2022/12/07 01:07:41;;;;;;;408.10;231.67;;;;;;;2.88;75.82;100787.59;4212957;28;20719;-60
2022/12/07 01:09:43;;;;;;;402.60;214.13;;;;;;;2.86;75.65;100786.03;4194438;28;20774;-60
2022/12/07 01:11:46;;;;;;;407.50;240.97;;;;;;;2.82;75.51;100788.09;4212054;28;20356;-57
2022/12/07 01:13:51;;;;;;;407.13;238.00;;;;;;;2.79;75.17;100785.69;4212752;28;20348;-60
2022/12/07 01:15:56;;;;;;;405.13;238.87;;;;;;;2.75;75.01;100783.38;4208602;28;20313;-59
2022/12/07 01:17:59;;;;;;;404.43;218.43;;;;;;;2.74;75.31;100784.34;4212741;28;20304;-59
2022/12/07 01:20:03;;;;;;;405.13;231.80;;;;;;;2.74;75.43;100779.84;4212065;28;20559;-61
2022/12/07 01:22:05;;;;;;;407.07;231.87;;;;;;;2.74;75.23;100785.19;4212165;28;20298;-61
2022/12/07 01:24:10;;;;;;;403.83;218.70;;;;;;;2.74;75.01;100774.53;4212226;28;20273;-61
2022/12/07 01:26:15;;;;;;;406.63;220.90;;;;;;;2.72;74.90;100775.63;4211306;28;20316;-61
2022/12/07 01:28:17;;;;;;;405.70;222.40;;;;;;;2.70;75.38;100775.75;4212474;28;20308;-61
2022/12/07 01:30:19;;;;;;;402.17;214.70;;;;;;;2.68;75.11;100769.69;4210380;28;20325;-61
2022/12/07 01:32:22;;;;;;;403.47;213.80;;;;;;;2.67;75.32;100771.50;4212499;28;20292;-61
2022/12/07 01:34:24;;;;;;;405.20;234.00;;;;;;;2.66;75.32;100767.16;4212451;28;20324;-60
2022/12/07 01:36:30;;;;;;;414.27;247.73;;;;;;;2.61;75.34;100761.34;4211426;28;20316;-61
2022/12/07 01:38:33;;;;;;;416.80;254.17;;;;;;;2.56;75.22;100760.88;4212110;28;20568;-59
2022/12/07 01:40:35;;;;;;;413.20;240.03;;;;;;;2.55;75.55;100761.00;4213405;28;20777;-60
2022/12/07 01:42:37;;;;;;;420.60;262.43;;;;;;;2.55;75.64;100759.19;4217934;28;20285;-61
2022/12/07 01:45:13;;;;;;;410.17;235.23;;;;;;;2.54;75.65;100760.16;4218207;28;20268;-59
2022/12/07 01:47:15;;;;;;;401.13;210.67;;;;;;;2.53;75.75;100761.13;4216535;28;20275;-59
2022/12/07 01:49:22;;;;;;;408.43;241.10;;;;;;;2.55;75.73;100753.00;4217832;28;20300;-61
2022/12/07 01:51:25;;;;;;;402.10;213.90;;;;;;;2.53;75.60;100750.47;4217006;28;20319;-59
2022/12/07 01:53:30;;;;;;;404.97;229.57;;;;;;;2.56;75.93;100755.56;4217999;28;20304;-61
2022/12/07 01:55:32;;;;;;;407.33;229.23;;;;;;;2.55;75.74;100748.50;4217336;28;20746;-60
2022/12/07 01:57:36;;;;;;;410.07;246.10;;;;;;;2.51;75.34;100752.41;4217164;28;20295;-59
2022/12/07 01:59:39;;;;;;;407.67;232.40;;;;;;;2.45;75.53;100743.09;4217353;28;20309;-58
2022/12/07 02:01:41;;;;;;;405.30;225.80;;;;;;;2.47;75.62;100745.63;4217064;28;20221;-58
2022/12/07 02:03:45;;;;;;;405.20;222.20;;;;;;;2.44;75.51;100728.06;4217714;28;20625;-60
2022/12/07 02:05:47;;;;;;;406.03;229.47;;;;;;;2.42;75.64;100731.84;4204616;28;20659;-60
2022/12/07 02:07:50;;;;;;;406.17;232.33;;;;;;;2.36;75.64;100738.50;4217957;28;20263;-58
2022/12/07 02:09:54;;;;;;;411.37;245.33;;;;;;;2.33;75.86;100734.25;4218194;28;20284;-59
2022/12/07 02:11:57;;;;;;;406.63;232.67;;;;;;;2.32;76.01;100742.38;4217250;28;20317;-59
2022/12/07 02:13:59;;;;;;;404.67;227.07;;;;;;;2.30;76.02;100731.88;4217476;28;20296;-58
2022/12/07 02:16:10;;;;;;;408.43;243.07;;;;;;;2.30;76.19;100731.00;4216341;28;20296;-60
2022/12/07 02:18:17;;;;;;;404.13;219.33;;;;;;;2.24;75.96;100728.81;4217666;28;20359;-58
2022/12/07 02:20:25;;;;;;;398.43;203.40;;;;;;;2.30;76.42;100741.66;4204165;28;20311;-58
2022/12/07 02:23:00;;;;;;;404.77;226.17;;;;;;;2.32;76.12;100747.69;4217491;28;20237;-59
2022/12/07 02:25:12;;;;;;;405.53;215.30;;;;;;;2.32;76.06;100735.25;4216259;28;20285;-60
2022/12/07 02:27:29;;;;;;;405.60;224.90;;;;;;;2.31;76.02;100738.03;4218082;28;20698;-59
2022/12/07 02:29:36;;;;;;;402.87;216.23;;;;;;;2.29;75.95;100737.31;4218124;28;20221;-59
2022/12/07 02:31:42;;;;;;;404.50;218.57;;;;;;;2.30;76.16;100728.31;4216690;28;20693;-59
2022/12/07 02:33:47;;;;;;;401.40;211.77;;;;;;;2.29;76.20;100731.97;4217446;28;20312;-60
2022/12/07 02:35:56;;;;;;;400.50;205.83;;;;;;;2.26;76.14;100733.06;4216915;28;20325;-61
2022/12/07 02:38:03;;;;;;;403.13;212.83;;;;;;;2.23;75.98;100733.31;4217687;28;20308;-61
2022/12/07 02:40:10;;;;;;;395.80;201.50;;;;;;;2.17;76.25;100726.66;4216262;28;20223;-61
2022/12/07 02:42:16;;;;;;;399.17;212.43;;;;;;;2.14;76.42;100723.38;4217525;28;20747;-59
2022/12/07 02:44:21;;;;;;;395.00;197.03;;;;;;;2.10;76.39;100717.47;4217321;28;20750;-60
2022/12/07 02:46:29;;;;;;;399.03;212.17;;;;;;;2.09;76.93;100713.09;4216434;28;20320;-60
2022/12/07 02:48:33;;;;;;;399.23;203.87;;;;;;;2.07;76.97;100715.06;4217274;28;20730;-59
2022/12/07 02:50:35;;;;;;;394.77;195.50;;;;;;;2.03;76.91;100710.94;4216719;28;20738;-59
2022/12/07 02:52:37;;;;;;;395.90;199.03;;;;;;;2.01;77.10;100710.22;4215251;28;20277;-60
2022/12/07 02:54:39;;;;;;;396.13;206.47;;;;;;;1.97;77.16;100703.41;4214861;28;20742;-61
2022/12/07 02:56:47;;;;;;;403.83;227.43;;;;;;;1.94;77.19;100709.84;4213357;28;20332;-60
2022/12/07 02:58:58;;;;;;;403.93;220.83;;;;;;;1.92;77.31;100713.59;4214922;28;20300;-59
2022/12/07 03:01:07;;;;;;;400.70;212.77;;;;;;;1.87;77.30;100705.13;4214302;28;20308;-60
2022/12/07 03:03:11;;;;;;;400.43;210.37;;;;;;;1.84;77.32;100697.38;4214909;28;20300;-61
2022/12/07 03:05:28;;;;;;;404.50;214.67;;;;;;;1.83;77.79;100695.69;4213901;28;20240;-60
2022/12/07 03:07:37;;;;;;;403.63;223.43;;;;;;;1.83;77.59;100693.84;4214381;28;20634;-59
2022/12/07 03:09:46;;;;;;;401.17;210.57;;;;;;;1.78;77.57;100683.56;4208503;28;20281;-60
2022/12/07 03:11:51;;;;;;;403.53;216.93;;;;;;;1.77;77.79;100687.22;4226345;28;20235;-59
2022/12/07 03:13:59;;;;;;;399.40;212.17;;;;;;;1.76;78.03;100692.66;4214239;28;20710;-60
2022/12/07 03:16:07;;;;;;;401.13;207.83;;;;;;;1.75;77.85;100678.47;4209311;28;21322;-60
2022/12/07 03:18:14;;;;;;;387.67;187.37;;;;;;;1.73;77.87;100683.09;4212831;28;20737;-59
2022/12/07 03:20:20;;;;;;;387.37;182.70;;;;;;;1.73;78.10;100688.41;4212657;28;20712;-58
2022/12/07 03:22:23;;;;;;;391.10;193.27;;;;;;;1.73;78.14;100677.78;4214385;28;20703;-59
2022/12/07 03:24:28;;;;;;;391.13;187.63;;;;;;;1.72;78.06;100673.41;4212541;28;20706;-59
2022/12/07 03:26:35;;;;;;;390.37;196.50;;;;;;;1.74;78.14;100675.94;4212587;28;20738;-57
2022/12/07 03:28:40;;;;;;;391.83;191.97;;;;;;;1.74;78.41;100662.63;4213116;28;20757;-60
2022/12/07 03:30:46;;;;;;;395.37;203.93;;;;;;;1.70;78.35;100659.38;4213287;28;21636;-60
2022/12/07 03:32:51;;;;;;;390.83;192.00;;;;;;;1.65;78.35;100648.25;4212988;28;20707;-59
2022/12/07 03:34:58;;;;;;;389.43;183.87;;;;;;;1.67;78.62;100651.63;4201379;28;20758;-60
2022/12/07 03:37:04;;;;;;;388.57;181.80;;;;;;;1.66;78.79;100649.91;4212497;28;20729;-58
2022/12/07 03:39:13;;;;;;;396.10;206.60;;;;;;;1.64;78.80;100646.53;4213515;28;20737;-60
2022/12/07 03:41:19;;;;;;;395.37;192.50;;;;;;;1.62;79.14;100641.34;4212977;28;20726;-59
2022/12/07 03:43:22;;;;;;;390.93;185.07;;;;;;;1.65;79.11;100647.41;4213823;28;20710;-60
2022/12/07 03:45:31;;;;;;;391.73;191.27;;;;;;;1.65;79.22;100636.75;4212105;28;20742;-59
2022/12/07 03:47:36;;;;;;;396.80;197.17;;;;;;;1.62;79.00;100632.50;4207402;28;20619;-59
2022/12/07 03:49:42;;;;;;;397.43;202.20;;;;;;;1.60;79.18;100622.00;4213240;28;20707;-60
2022/12/07 03:51:48;;;;;;;398.97;211.47;;;;;;;1.59;79.56;100622.94;4200204;28;20754;-57
2022/12/07 03:53:53;;;;;;;401.90;206.70;;;;;;;1.55;79.40;100616.19;4214231;28;20707;-57
2022/12/07 03:55:57;;;;;;;393.00;194.03;;;;;;;1.56;79.56;100615.19;4213122;28;21292;-60
2022/12/07 03:58:01;;;;;;;395.20;199.83;;;;;;;1.56;79.77;100603.72;4213661;28;20746;-60
2022/12/07 04:00:06;;;;;;;399.70;223.00;;;;;;;1.57;79.89;100605.44;4213308;28;20718;-58
2022/12/07 04:02:15;;;;;;;394.47;192.10;;;;;;;1.56;79.93;100601.06;4213912;28;20706;-58
2022/12/07 04:04:17;;;;;;;397.87;208.07;;;;;;;1.51;79.77;100595.25;4211663;28;20710;-60
2022/12/07 04:06:19;;;;;;;397.83;210.03;;;;;;;1.50;80.29;100597.06;4212713;28;20747;-61
2022/12/07 04:08:25;;;;;;;401.87;215.07;;;;;;;1.51;80.56;100592.59;4213908;28;20645;-60
2022/12/07 04:10:28;;;;;;;403.17;222.13;;;;;;;1.50;80.84;100589.06;4193930;28;20683;-62
2022/12/07 04:12:30;;;;;;;397.40;200.07;;;;;;;1.54;80.84;100587.88;4213483;28;21188;-61
2022/12/07 04:14:32;;;;;;;395.60;193.93;;;;;;;1.55;80.81;100591.38;4213622;28;20707;-61
2022/12/07 04:16:34;;;;;;;397.63;201.67;;;;;;;1.54;80.90;100584.38;4212063;28;21284;-60
2022/12/07 04:18:37;;;;;;;395.77;202.23;;;;;;;1.51;81.44;100587.28;4213444;28;20749;-60
2022/12/07 04:20:39;;;;;;;393.93;196.13;;;;;;;1.54;81.45;100584.38;4212569;28;20739;-60
2022/12/07 04:22:42;;;;;;;396.60;208.93;;;;;;;1.55;81.58;100588.72;4213766;28;20707;-60
2022/12/07 04:24:46;;;;;;;394.70;197.00;;;;;;;1.58;81.73;100583.13;4192759;28;21227;-61
2022/12/07 04:26:48;;;;;;;390.50;191.87;;;;;;;1.58;81.90;100586.66;4212416;28;20726;-60
2022/12/07 04:28:51;;;;;;;399.67;220.67;;;;;;;1.55;81.67;100575.41;4213700;28;20990;-61
2022/12/07 04:30:53;;;;;;;393.30;198.90;;;;;;;1.52;81.90;100583.63;4212713;28;20742;-60
2022/12/07 04:32:55;;;;;;;390.67;189.67;;;;;;;1.49;81.92;100579.41;4213338;28;20714;-61
2022/12/07 04:34:57;;;;;;;394.17;189.07;;;;;;;1.47;82.19;100569.84;4212071;28;20767;-61
2022/12/07 04:37:00;;;;;;;395.13;206.73;;;;;;;1.50;82.47;100572.25;4211167;28;20890;-61
2022/12/07 04:39:03;;;;;;;403.87;228.00;;;;;;;1.49;82.72;100565.25;4208943;28;21121;-61
2022/12/07 04:41:07;;;;;;;393.20;192.43;;;;;;;1.46;82.57;100562.81;4191372;28;20745;-60
2022/12/07 04:43:10;;;;;;;393.20;196.83;;;;;;;1.43;82.75;100548.78;4212904;28;20698;-60
2022/12/07 04:45:12;;;;;;;400.83;211.23;;;;;;;1.44;83.05;100561.16;4210293;28;21279;-59
2022/12/07 04:47:14;;;;;;;394.63;201.67;;;;;;;1.41;83.15;100553.41;4212120;28;20715;-61
2022/12/07 04:49:17;;;;;;;394.63;205.17;;;;;;;1.41;83.60;100557.84;4212878;28;21191;-60
2022/12/07 04:51:21;;;;;;;393.70;194.60;;;;;;;1.40;83.49;100553.53;4212015;28;20735;-61
2022/12/07 04:53:23;;;;;;;391.53;188.37;;;;;;;1.42;83.73;100556.91;4212744;28;20715;-60
2022/12/07 04:55:26;;;;;;;391.43;189.53;;;;;;;1.41;84.01;100549.88;4212221;28;21304;-60
2022/12/07 04:57:29;;;;;;;388.77;180.07;;;;;;;1.43;84.22;100555.94;4213335;28;20695;-61
2022/12/07 04:59:31;;;;;;;400.43;219.83;;;;;;;1.46;84.16;100547.72;4211458;28;20703;-61
2022/12/07 05:01:34;;;;;;;395.07;198.50;;;;;;;1.47;84.42;100544.06;4210085;28;20730;-60
2022/12/07 05:03:36;;;;;;;395.93;204.57;;;;;;;1.49;84.68;100539.50;4211924;28;20699;-59
2022/12/07 05:05:41;;;;;;;392.10;188.87;;;;;;;1.50;84.63;100532.34;4210638;28;20755;-66
2022/12/07 05:07:43;;;;;;;397.33;206.20;;;;;;;1.56;84.89;100527.34;4211205;28;20695;-66
2022/12/07 05:09:45;;;;;;;391.90;185.23;;;;;;;1.58;84.97;100540.53;4211545;28;21202;-59
2022/12/07 05:11:47;;;;;;;392.17;196.90;;;;;;;1.59;85.05;100540.41;4211295;28;20751;-60
2022/12/07 05:13:51;;;;;;;392.83;192.80;;;;;;;1.62;84.99;100550.81;4211970;28;20723;-59
2022/12/07 05:15:53;;;;;;;392.83;187.47;;;;;;;1.62;85.22;100526.03;4207535;28;20746;-60
2022/12/07 05:17:56;;;;;;;391.27;188.83;;;;;;;1.64;85.24;100525.91;4211844;28;20726;-60
2022/12/07 05:19:58;;;;;;;383.10;175.40;;;;;;;1.67;85.41;100531.81;4214480;28;20711;-60
2022/12/07 05:22:00;;;;;;;385.70;182.77;;;;;;;1.69;85.52;100526.38;4211143;28;21437;-60
2022/12/07 05:24:03;;;;;;;477.57;408.50;;;;;;;1.69;85.28;100526.38;4206149;28;20644;-63
2022/12/07 05:26:05;;;;;;;473.93;384.10;;;;;;;1.72;85.46;100526.94;4210720;28;20304;-60
2022/12/07 05:28:08;;;;;;;464.57;367.43;;;;;;;1.77;85.32;100526.56;4206290;28;20790;-61
2022/12/07 05:30:12;;;;;;;453.80;338.17;;;;;;;1.79;85.46;100525.50;4208951;28;20301;-59
2022/12/07 05:32:15;;;;;;;458.47;339.57;;;;;;;1.82;85.41;100516.41;4210708;28;20276;-60
2022/12/07 05:34:17;;;;;;;458.47;345.90;;;;;;;1.81;85.56;100522.72;4212153;28;20304;-60
2022/12/07 05:36:19;;;;;;;451.43;326.03;;;;;;;1.77;85.50;100505.28;4211772;28;20315;-61
2022/12/07 05:38:22;;;;;;;441.40;297.20;;;;;;;1.84;85.51;100510.97;4207748;28;20644;-60
2022/12/07 05:40:24;;;;;;;453.17;324.60;;;;;;;1.85;85.84;100512.63;4210382;28;20312;-59
2022/12/07 05:42:26;;;;;;;466.47;370.17;;;;;;;1.86;85.85;100512.50;4211340;28;20664;-59
2022/12/07 05:44:28;;;;;;;460.90;347.90;;;;;;;1.87;85.81;100508.88;4211701;28;20288;-62
2022/12/07 05:46:32;;;;;;;464.23;366.23;;;;;;;1.84;85.93;100503.81;4210551;28;20336;-61
2022/12/07 05:48:34;;;;;;;469.77;376.13;;;;;;;1.92;86.07;100508.50;4211057;28;20647;-60
2022/12/07 05:50:36;;;;;;;464.60;365.63;;;;;;;1.94;85.82;100501.22;4211604;28;20225;-61
2022/12/07 05:52:39;;;;;;;460.53;349.93;;;;;;;1.96;86.09;100512.63;4212438;28;20277;-60
2022/12/07 05:54:41;;;;;;;461.97;348.53;;;;;;;1.96;86.30;100505.47;4193855;28;20289;-58
2022/12/07 05:56:43;;;;;;;462.73;358.87;;;;;;;2.01;86.38;100507.75;4211181;28;20657;-58
2022/12/07 06:01:02;;;;;;;462.77;360.67;;;;;;;2.01;86.22;100513.09;4200295;28;20355;-61
2022/12/07 06:03:05;;;;;;;471.97;383.40;;;;;;;2.03;86.66;100504.97;4192957;28;20654;-61
2022/12/07 06:05:08;;;;;;;476.40;392.83;;;;;;;2.07;86.53;100501.91;4209826;28;20368;-59
2022/12/07 06:07:12;;;;;;;468.13;379.87;;;;;;;2.10;86.82;100504.31;4208222;28;20277;-61
2022/12/07 06:09:14;;;;;;;469.23;376.10;;;;;;;2.14;86.56;100499.56;4212048;28;20312;-59
2022/12/07 06:13:36;;;;;;;464.23;370.77;;;;;;;2.21;86.92;100489.25;4208228;28;20648;-58
2022/12/07 06:15:39;;;;;;;463.10;362.33;;;;;;;2.21;86.72;100481.25;4191003;28;20398;-59
2022/12/07 06:17:41;;;;;;;466.87;367.47;;;;;;;2.22;86.79;100472.28;4211688;28;20651;-58
2022/12/07 06:19:45;;;;;;;461.73;355.23;;;;;;;2.22;86.68;100478.47;4212193;28;20284;-60
2022/12/07 06:21:47;;;;;;;467.10;377.77;;;;;;;2.23;86.76;100476.66;4211572;28;20312;-59
2022/12/07 06:23:49;;;;;;;463.90;360.83;;;;;;;2.24;87.09;100470.34;4211923;28;20289;-61
2022/12/07 06:25:52;;;;;;;469.87;399.60;;;;;;;2.25;86.79;100469.38;4205604;28;20770;-60
2022/12/07 06:27:55;;;;;;;463.53;364.97;;;;;;;2.26;86.87;100468.41;4206621;28;20328;-61
2022/12/07 06:29:57;;;;;;;469.40;386.77;;;;;;;2.26;86.97;100465.75;4207327;28;20638;-60
2022/12/07 06:31:59;;;;;;;463.87;372.30;;;;;;;2.30;87.08;100467.16;4211357;28;20226;-61
2022/12/07 06:34:03;;;;;;;462.93;344.07;;;;;;;2.31;87.08;100475.00;4212105;28;20313;-61
2022/12/07 06:36:08;;;;;;;460.70;353.10;;;;;;;2.33;87.45;100470.38;4211572;28;20324;-61
2022/12/07 06:38:10;;;;;;;454.83;334.17;;;;;;;2.32;87.29;100474.06;4214118;28;20450;-61
2022/12/07 06:40:13;;;;;;;457.00;347.13;;;;;;;2.32;87.30;100470.50;4213560;28;20281;-61
2022/12/07 06:42:15;;;;;;;468.33;376.93;;;;;;;2.33;87.12;100469.56;4214638;28;20281;-61
2022/12/07 06:44:17;;;;;;;478.67;379.87;;;;;;;2.36;87.36;100461.28;4214537;28;20277;-61
2022/12/07 06:46:19;;;;;;;461.37;358.40;;;;;;;2.37;87.54;100467.47;4213810;28;20309;-61
2022/12/07 06:48:22;;;;;;;453.33;324.37;;;;;;;2.39;87.37;100466.38;4214722;28;20312;-61
2022/12/07 06:50:24;;;;;;;464.37;369.07;;;;;;;2.39;87.28;100458.38;4195905;28;20320;-61
2022/12/07 06:52:28;;;;;;;453.40;347.40;;;;;;;2.41;87.50;100469.75;4215012;28;20762;-60
2022/12/07 06:54:30;;;;;;;450.03;341.10;;;;;;;2.43;87.43;100467.81;4214604;28;20288;-61
2022/12/07 06:56:32;;;;;;;447.30;319.00;;;;;;;2.44;87.60;100465.97;4213098;28;20312;-60
2022/12/07 06:58:34;;;;;;;444.63;313.87;;;;;;;2.44;87.59;100466.81;4203647;28;20318;-60
2022/12/07 07:00:36;;;;;;;444.40;305.67;;;;;;;2.45;87.46;100465.84;4214280;28;20635;-61
2022/12/07 07:02:39;;;;;;;445.43;315.40;;;;;;;2.48;87.58;100462.09;4214834;28;20288;-61
2022/12/07 07:04:41;;;;;;;449.33;326.23;;;;;;;2.45;87.55;100455.19;4214636;28;20610;-61
2022/12/07 07:06:43;;;;;;;443.77;303.33;;;;;;;2.51;87.75;100459.16;4213768;28;20305;-61
2022/12/07 07:08:47;;;;;;;448.13;319.10;;;;;;;2.54;87.75;100461.56;4214694;28;20300;-61
2022/12/07 07:10:49;;;;;;;450.50;332.53;;;;;;;2.56;87.65;100459.59;4198151;28;20313;-61
2022/12/07 07:12:51;;;;;;;444.90;310.70;;;;;;;2.59;87.72;100472.66;4213604;28;20646;-61
2022/12/07 07:14:53;;;;;;;451.33;342.20;;;;;;;2.59;87.61;100464.66;4214140;28;20289;-60
2022/12/07 07:16:56;;;;;;;447.60;325.27;;;;;;;2.61;87.78;100461.88;4213783;28;20647;-61
2022/12/07 07:18:58;;;;;;;451.40;342.90;;;;;;;2.63;87.66;100458.09;4213428;28;20312;-61
2022/12/07 07:21:00;;;;;;;448.73;326.93;;;;;;;2.65;87.70;100466.81;4213237;28;20304;-61
2022/12/07 07:23:03;;;;;;;449.60;335.90;;;;;;;2.67;87.66;100464.00;4214150;28;20297;-61
2022/12/07 07:25:07;;;;;;;452.60;342.23;;;;;;;2.69;87.83;100456.72;4212947;28;20277;-60
2022/12/07 07:27:09;;;;;;;445.43;320.07;;;;;;;2.70;87.68;100464.56;4214573;28;20766;-61
2022/12/07 07:29:12;;;;;;;451.47;338.70;;;;;;;2.73;87.74;100459.94;4214361;28;20238;-61
2022/12/07 07:31:14;;;;;;;446.03;323.33;;;;;;;2.74;87.54;100456.31;4213516;28;20305;-61
2022/12/07 07:33:16;;;;;;;446.40;322.10;;;;;;;2.74;87.77;100457.16;4213916;28;20198;-62
2022/12/07 07:35:19;;;;;;;445.87;322.93;;;;;;;2.77;87.63;100456.03;4212690;28;20324;-61
2022/12/07 07:37:21;;;;;;;446.50;319.07;;;;;;;2.79;87.42;100457.63;4214208;28;20673;-61
2022/12/07 07:39:23;;;;;;;452.27;335.83;;;;;;;2.81;87.25;100465.47;4214006;28;20309;-61
2022/12/07 07:41:27;;;;;;;439.97;295.40;;;;;;;2.81;87.18;100458.31;4212577;28;20988;-61
2022/12/07 07:43:33;;;;;;;448.60;332.80;;;;;;;2.80;87.20;100456.63;4214640;28;20756;-61
2022/12/07 07:45:35;;;;;;;445.73;322.07;;;;;;;2.81;87.27;100460.97;4213133;28;20317;-61
2022/12/07 07:47:37;;;;;;;444.43;315.37;;;;;;;2.84;87.37;100454.53;4213981;28;20276;-61
2022/12/07 07:49:39;;;;;;;446.77;322.33;;;;;;;2.86;87.13;100472.09;4201980;28;20886;-61
2022/12/07 07:51:42;;;;;;;451.00;337.00;;;;;;;2.87;87.32;100448.94;4213371;28;20301;-61
2022/12/07 07:53:44;;;;;;;451.03;340.90;;;;;;;2.87;86.86;100449.78;4214278;28;20711;-61
2022/12/07 07:55:52;;;;;;;451.07;337.27;;;;;;;2.90;86.89;100454.00;4212785;28;20337;-60
2022/12/07 07:57:56;;;;;;;453.40;347.43;;;;;;;2.91;87.11;100454.84;4213801;28;20308;-61
2022/12/07 07:59:58;;;;;;;449.03;333.80;;;;;;;2.92;86.95;100457.38;4213402;28;20280;-60
2022/12/07 08:02:01;;;;;;;448.80;328.80;;;;;;;2.95;86.95;100457.13;4213848;28;20722;-61
2022/12/07 08:04:03;;;;;;;446.87;321.13;;;;;;;2.97;86.78;100459.66;4213814;28;20276;-61
2022/12/07 08:06:06;;;;;;;447.13;329.27;;;;;;;2.98;86.76;100456.84;4212777;28;20316;-61
2022/12/07 08:08:08;;;;;;;447.77;335.17;;;;;;;3.01;86.44;100455.72;4212403;28;20296;-61
2022/12/07 08:10:12;;;;;;;441.50;297.80;;;;;;;3.05;86.04;100459.81;4212793;28;20292;-60
2022/12/07 08:12:15;;;;;;;449.70;331.50;;;;;;;3.06;85.57;100458.84;4213797;28;20285;-61
2022/12/07 08:14:19;;;;;;;446.83;312.87;;;;;;;3.07;85.47;100463.19;4195644;28;20248;-61
2022/12/07 08:16:21;;;;;;;450.37;334.03;;;;;;;3.10;85.47;100459.41;4212768;28;20304;-62
2022/12/07 08:18:23;;;;;;;452.27;344.07;;;;;;;3.12;84.93;100466.31;4213332;28;20309;-61
2022/12/07 08:20:25;;;;;;;443.73;308.13;;;;;;;3.12;84.66;100468.97;4212759;28;20305;-61
2022/12/07 08:22:27;;;;;;;444.63;316.13;;;;;;;3.16;84.52;100477.53;4213286;28;20308;-61
2022/12/07 08:24:30;;;;;;;445.23;319.87;;;;;;;3.16;84.25;100473.03;4213516;28;20225;-61
2022/12/07 08:26:32;;;;;;;449.63;334.13;;;;;;;3.18;83.83;100463.09;4212301;28;20312;-61
2022/12/07 08:28:34;;;;;;;447.03;325.67;;;;;;;3.18;83.48;100460.44;4213374;28;20285;-61
2022/12/07 08:30:38;;;;;;;448.40;336.37;;;;;;;3.21;83.54;100469.97;4212692;28;20333;-61
2022/12/07 08:32:40;;;;;;;452.17;344.83;;;;;;;3.21;83.24;100476.16;4213452;28;20305;-61
2022/12/07 08:34:42;;;;;;;444.90;316.67;;;;;;;3.22;82.88;100471.66;4212402;28;20766;-61
2022/12/07 08:36:45;;;;;;;445.20;328.47;;;;;;;3.25;82.48;100471.41;4198945;28;20657;-60
2022/12/07 08:38:47;;;;;;;442.23;314.73;;;;;;;3.25;82.54;100477.56;4213118;28;20305;-61
2022/12/07 08:40:55;;;;;;;441.90;314.97;;;;;;;3.27;82.43;100481.94;4212665;28;20966;-61
2022/12/07 08:42:57;;;;;;;442.10;312.10;;;;;;;3.25;81.86;100477.56;4194908;28;20292;-62
2022/12/07 08:44:59;;;;;;;446.27;329.37;;;;;;;3.28;81.48;100471.13;4193699;28;20370;-61
2022/12/07 08:47:05;;;;;;;446.33;323.53;;;;;;;3.28;81.13;100476.47;4213060;28;20289;-60
2022/12/07 08:49:11;;;;;;;447.90;330.87;;;;;;;3.29;80.87;100477.28;4211241;28;20316;-61
2022/12/07 08:51:13;;;;;;;450.43;335.57;;;;;;;3.30;80.15;100481.66;4208659;28;20300;-61
2022/12/07 08:53:15;;;;;;;444.53;319.57;;;;;;;3.31;80.12;100478.00;4203017;28;20718;-61
2022/12/07 08:55:18;;;;;;;445.47;323.17;;;;;;;3.32;79.93;100488.53;4212204;28;20996;-61
2022/12/07 08:57:20;;;;;;;450.30;342.97;;;;;;;3.32;79.77;100483.19;4212828;28;20308;-60
2022/12/07 08:59:23;;;;;;;453.13;361.17;;;;;;;3.33;79.61;100492.06;4213168;28;20298;-61
2022/12/07 09:01:25;;;;;;;454.43;354.60;;;;;;;3.33;79.29;100492.06;4211642;28;20669;-61
2022/12/07 09:03:29;;;;;;;454.73;361.87;;;;;;;3.33;78.90;100497.41;4213003;28;20228;-61
2022/12/07 09:05:33;;;;;;;457.17;365.33;;;;;;;3.34;78.84;100491.94;4213414;28;20307;-61
2022/12/07 09:07:35;;;;;;;446.70;318.47;;;;;;;3.35;79.01;100495.44;4225428;28;20276;-61
2022/12/07 09:09:37;;;;;;;450.43;325.43;;;;;;;3.36;79.02;100494.47;4212978;28;20629;-61
2022/12/07 09:11:40;;;;;;;450.83;331.37;;;;;;;3.36;78.90;100499.81;4212024;28;20317;-61
2022/12/07 09:13:42;;;;;;;455.80;350.37;;;;;;;3.37;78.65;100493.47;4212821;28;20284;-61
2022/12/07 09:15:44;;;;;;;455.17;343.70;;;;;;;3.37;78.47;100491.66;4211907;28;20229;-61
2022/12/07 09:17:46;;;;;;;456.10;352.30;;;;;;;3.38;78.36;100501.34;4212716;28;20308;-61
2022/12/07 09:19:50;;;;;;;455.33;351.10;;;;;;;3.39;78.12;100497.69;4212453;28;20281;-61